sensor_id;sensor_type;location;lat;lon;timestamp;pressure;altitude;pressure_sealevel;temperature;humidity
31239;BME280;17871;31.584;74.450;2022-07-10T00:00:38;97401.81;;;30.59;100.00
31239;BME280;17871;31.584;74.450;2022-07-10T00:03:08;97403.06;;;30.55;100.00
31239;BME280;17871;31.584;74.450;2022-07-10T00:05:38;97406.38;;;30.47;100.00
31239;BME280;17871;31.584;74.450;2022-07-10T00:08:08;97404.28;;;30.51;100.00
31239;BME280;17871;31.584;74.450;2022-07-10T00:10:38;97399.03;;;30.51;100.00
31239;BME280;17871;31.584;74.450;2022-07-10T00:13:08;97397.94;;;30.72;100.00
31239;BME280;17871;31.584;74.450;2022-07-10T00:15:37;97399.03;;;30.60;100.00
31239;BME280;17871;31.584;74.450;2022-07-10T00:18:07;97400.97;;;30.58;100.00
31239;BME280;17871;31.584;74.450;2022-07-10T00:20:37;97401.94;;;30.67;100.00
31239;BME280;17871;31.584;74.450;2022-07-10T00:23:07;97411.66;;;30.66;100.00
31239;BME280;17871;31.584;74.450;2022-07-10T00:25:37;97410.31;;;30.81;100.00
31239;BME280;17871;31.584;74.450;2022-07-10T00:28:06;97406.00;;;30.80;100.00
31239;BME280;17871;31.584;74.450;2022-07-10T00:30:36;97413.91;;;30.80;100.00
31239;BME280;17871;31.584;74.450;2022-07-10T00:33:07;97411.69;;;30.85;100.00
31239;BME280;17871;31.584;74.450;2022-07-10T00:35:36;97422.38;;;30.74;100.00
31239;BME280;17871;31.584;74.450;2022-07-10T00:38:06;97429.16;;;30.77;100.00
31239;BME280;17871;31.584;74.450;2022-07-10T00:40:36;97429.56;;;30.63;100.00
31239;BME280;17871;31.584;74.450;2022-07-10T00:43:08;97432.47;;;30.60;100.00
31239;BME280;17871;31.584;74.450;2022-07-10T00:45:39;97426.81;;;30.64;100.00
31239;BME280;17871;31.584;74.450;2022-07-10T00:48:08;97436.25;;;30.76;100.00
31239;BME280;17871;31.584;74.450;2022-07-10T00:50:45;97437.09;;;30.86;100.00
31239;BME280;17871;31.584;74.450;2022-07-10T00:53:15;97441.69;;;30.84;100.00
31239;BME280;17871;31.584;74.450;2022-07-10T00:55:45;97439.22;;;31.02;99.59
31239;BME280;17871;31.584;74.450;2022-07-10T00:58:15;97436.69;;;30.91;100.00
31239;BME280;17871;31.584;74.450;2022-07-10T01:00:45;97439.63;;;30.98;99.80
31239;BME280;17871;31.584;74.450;2022-07-10T01:03:14;97433.94;;;31.02;99.24
31239;BME280;17871;31.584;74.450;2022-07-10T01:05:44;97432.13;;;31.03;99.25
31239;BME280;17871;31.584;74.450;2022-07-10T01:08:14;97433.66;;;31.05;99.00
31239;BME280;17871;31.584;74.450;2022-07-10T01:10:45;97436.97;;;31.26;97.91
31239;BME280;17871;31.584;74.450;2022-07-10T01:13:17;97442.81;;;31.20;97.84
31239;BME280;17871;31.584;74.450;2022-07-10T01:15:48;97436.97;;;31.17;98.39
31239;BME280;17871;31.584;74.450;2022-07-10T01:18:19;97437.13;;;31.25;98.47
31239;BME280;17871;31.584;74.450;2022-07-10T01:20:56;97441.94;;;31.39;97.01
31239;BME280;17871;31.584;74.450;2022-07-10T01:23:26;97442.13;;;31.28;96.80
31239;BME280;17871;31.584;74.450;2022-07-10T01:25:56;97443.34;;;31.43;96.69
31239;BME280;17871;31.584;74.450;2022-07-10T01:28:26;97441.13;;;31.48;95.85
31239;BME280;17871;31.584;74.450;2022-07-10T01:30:56;97438.31;;;31.50;95.57
31239;BME280;17871;31.584;74.450;2022-07-10T01:33:26;97444.72;;;31.47;95.67
31239;BME280;17871;31.584;74.450;2022-07-10T01:35:56;97437.50;;;31.39;96.01
31239;BME280;17871;31.584;74.450;2022-07-10T01:38:25;97443.75;;;31.48;95.84
31239;BME280;17871;31.584;74.450;2022-07-10T01:40:55;97451.44;;;31.51;96.08
31239;BME280;17871;31.584;74.450;2022-07-10T01:43:25;97458.78;;;31.48;96.18
31239;BME280;17871;31.584;74.450;2022-07-10T01:45:55;97469.69;;;31.81;94.29
31239;BME280;17871;31.584;74.450;2022-07-10T01:48:25;97473.84;;;31.94;93.61
31239;BME280;17871;31.584;74.450;2022-07-10T01:50:55;97480.00;;;31.75;93.90
31239;BME280;17871;31.584;74.450;2022-07-10T01:53:25;97472.81;;;31.67;95.42
31239;BME280;17871;31.584;74.450;2022-07-10T01:55:55;97476.94;;;31.79;94.65
31239;BME280;17871;31.584;74.450;2022-07-10T01:58:25;97483.56;;;31.93;93.24
31239;BME280;17871;31.584;74.450;2022-07-10T02:00:55;97479.75;;;31.59;94.45
31239;BME280;17871;31.584;74.450;2022-07-10T02:03:25;97484.47;;;31.74;94.19
31239;BME280;17871;31.584;74.450;2022-07-10T02:06:13;97469.13;;;31.87;94.16
31239;BME280;17871;31.584;74.450;2022-07-10T02:08:43;97472.16;;;31.93;94.50
31239;BME280;17871;31.584;74.450;2022-07-10T02:11:13;97468.41;;;32.32;90.61
31239;BME280;17871;31.584;74.450;2022-07-10T02:13:43;97470.81;;;32.25;92.34
31239;BME280;17871;31.584;74.450;2022-07-10T02:16:13;97468.03;;;32.27;91.80
31239;BME280;17871;31.584;74.450;2022-07-10T02:18:43;97464.94;;;32.31;91.38
31239;BME280;17871;31.584;74.450;2022-07-10T02:21:13;97467.09;;;32.46;90.60
31239;BME280;17871;31.584;74.450;2022-07-10T02:23:43;97462.72;;;32.54;89.88
31239;BME280;17871;31.584;74.450;2022-07-10T02:26:13;97467.47;;;32.60;90.60
31239;BME280;17871;31.584;74.450;2022-07-10T02:28:42;97476.53;;;32.48;91.19
31239;BME280;17871;31.584;74.450;2022-07-10T02:31:12;97484.09;;;32.70;89.72
31239;BME280;17871;31.584;74.450;2022-07-10T02:33:42;97489.34;;;32.80;89.17
31239;BME280;17871;31.584;74.450;2022-07-10T02:36:12;97493.63;;;32.63;88.71
31239;BME280;17871;31.584;74.450;2022-07-10T02:38:42;97486.16;;;32.49;90.38
31239;BME280;17871;31.584;74.450;2022-07-10T02:41:12;97489.84;;;32.66;89.47
31239;BME280;17871;31.584;74.450;2022-07-10T02:43:42;97496.28;;;32.81;90.04
31239;BME280;17871;31.584;74.450;2022-07-10T02:46:12;97496.53;;;33.05;88.00
31239;BME280;17871;31.584;74.450;2022-07-10T02:48:42;97500.69;;;33.08;88.15
31239;BME280;17871;31.584;74.450;2022-07-10T02:51:11;97494.41;;;33.09;87.01
31239;BME280;17871;31.584;74.450;2022-07-10T02:53:41;97503.06;;;33.11;87.73
31239;BME280;17871;31.584;74.450;2022-07-10T02:56:11;97511.41;;;33.16;86.69
31239;BME280;17871;31.584;74.450;2022-07-10T02:58:40;97517.69;;;33.32;85.99
31239;BME280;17871;31.584;74.450;2022-07-10T03:01:10;97520.03;;;33.18;86.89
31239;BME280;17871;31.584;74.450;2022-07-10T03:03:40;97522.44;;;33.29;86.61
31239;BME280;17871;31.584;74.450;2022-07-10T03:06:10;97526.22;;;33.44;85.02
31239;BME280;17871;31.584;74.450;2022-07-10T03:08:41;97529.84;;;33.43;85.56
31239;BME280;17871;31.584;74.450;2022-07-10T03:11:11;97525.28;;;33.53;85.33
31239;BME280;17871;31.584;74.450;2022-07-10T03:13:40;97538.19;;;33.48;86.35
31239;BME280;17871;31.584;74.450;2022-07-10T03:16:10;97538.94;;;33.58;84.88
31239;BME280;17871;31.584;74.450;2022-07-10T03:18:40;97537.50;;;33.64;85.19
31239;BME280;17871;31.584;74.450;2022-07-10T03:21:10;97540.56;;;33.59;85.03
31239;BME280;17871;31.584;74.450;2022-07-10T03:23:40;97531.16;;;33.82;84.01
31239;BME280;17871;31.584;74.450;2022-07-10T03:26:10;97532.53;;;33.86;84.79
31239;BME280;17871;31.584;74.450;2022-07-10T03:28:40;97538.53;;;33.88;83.53
31239;BME280;17871;31.584;74.450;2022-07-10T03:31:10;97547.09;;;33.82;83.76
31239;BME280;17871;31.584;74.450;2022-07-10T03:33:39;97555.09;;;33.65;85.53
31239;BME280;17871;31.584;74.450;2022-07-10T03:36:09;97554.47;;;33.97;82.86
31239;BME280;17871;31.584;74.450;2022-07-10T03:38:40;97548.22;;;33.80;83.78
31239;BME280;17871;31.584;74.450;2022-07-10T03:41:09;97557.22;;;33.61;85.40
31239;BME280;17871;31.584;74.450;2022-07-10T03:43:39;97556.22;;;33.62;84.63
31239;BME280;17871;31.584;74.450;2022-07-10T03:46:09;97551.78;;;33.88;83.84
31239;BME280;17871;31.584;74.450;2022-07-10T03:48:39;97564.25;;;33.96;83.11
31239;BME280;17871;31.584;74.450;2022-07-10T03:51:09;97571.63;;;33.84;82.91
31239;BME280;17871;31.584;74.450;2022-07-10T03:53:39;97572.53;;;33.40;84.41
31239;BME280;17871;31.584;74.450;2022-07-10T03:56:08;97562.84;;;33.31;84.50
31239;BME280;17871;31.584;74.450;2022-07-10T03:58:37;97568.38;;;33.37;85.35
31239;BME280;17871;31.584;74.450;2022-07-10T04:01:08;97565.91;;;33.36;86.19
31239;BME280;17871;31.584;74.450;2022-07-10T04:03:37;97566.47;;;33.30;87.46
31239;BME280;17871;31.584;74.450;2022-07-10T04:06:07;97560.75;;;33.34;86.03
31239;BME280;17871;31.584;74.450;2022-07-10T04:08:37;97558.03;;;33.62;85.23
31239;BME280;17871;31.584;74.450;2022-07-10T04:11:08;97551.28;;;33.32;85.01
31239;BME280;17871;31.584;74.450;2022-07-10T04:13:38;97563.09;;;33.73;84.47
31239;BME280;17871;31.584;74.450;2022-07-10T04:16:08;97560.19;;;33.84;84.40
31239;BME280;17871;31.584;74.450;2022-07-10T04:18:42;97559.91;;;33.52;85.75
31239;BME280;17871;31.584;74.450;2022-07-10T04:21:12;97567.84;;;33.34;84.77
31239;BME280;17871;31.584;74.450;2022-07-10T04:23:42;97565.22;;;33.52;85.48
31239;BME280;17871;31.584;74.450;2022-07-10T04:26:12;97568.56;;;33.71;84.48
31239;BME280;17871;31.584;74.450;2022-07-10T04:28:42;97557.91;;;33.89;83.23
31239;BME280;17871;31.584;74.450;2022-07-10T04:31:12;97563.47;;;33.78;83.67
31239;BME280;17871;31.584;74.450;2022-07-10T04:33:42;97562.31;;;33.80;83.50
31239;BME280;17871;31.584;74.450;2022-07-10T04:36:12;97562.94;;;33.74;84.45
31239;BME280;17871;31.584;74.450;2022-07-10T04:38:42;97559.16;;;34.03;82.61
31239;BME280;17871;31.584;74.450;2022-07-10T04:41:12;97549.75;;;34.08;82.34
31239;BME280;17871;31.584;74.450;2022-07-10T04:43:42;97546.09;;;33.83;83.48
31239;BME280;17871;31.584;74.450;2022-07-10T04:46:11;97544.50;;;33.90;83.44
31239;BME280;17871;31.584;74.450;2022-07-10T04:48:41;97539.94;;;34.01;83.09
31239;BME280;17871;31.584;74.450;2022-07-10T04:51:11;97532.56;;;34.46;81.87
31239;BME280;17871;31.584;74.450;2022-07-10T04:53:41;97532.63;;;34.54;79.34
31239;BME280;17871;31.584;74.450;2022-07-10T04:56:10;97526.13;;;34.90;78.60
31239;BME280;17871;31.584;74.450;2022-07-10T04:58:40;97520.00;;;34.98;78.98
31239;BME280;17871;31.584;74.450;2022-07-10T05:01:17;97520.72;;;35.40;74.81
31239;BME280;17871;31.584;74.450;2022-07-10T05:03:47;97517.75;;;35.19;77.04
31239;BME280;17871;31.584;74.450;2022-07-10T05:06:17;97517.34;;;34.98;76.03
31239;BME280;17871;31.584;74.450;2022-07-10T05:08:46;97516.84;;;35.03;77.58
31239;BME280;17871;31.584;74.450;2022-07-10T05:11:21;97519.91;;;35.48;75.59
31239;BME280;17871;31.584;74.450;2022-07-10T05:13:51;97500.63;;;35.38;75.57
31239;BME280;17871;31.584;74.450;2022-07-10T05:16:21;97502.97;;;35.41;75.93
31239;BME280;17871;31.584;74.450;2022-07-10T05:18:51;97490.00;;;35.54;74.89
31239;BME280;17871;31.584;74.450;2022-07-10T05:21:21;97487.53;;;35.53;74.62
31239;BME280;17871;31.584;74.450;2022-07-10T05:23:51;97475.72;;;35.55;73.82
31239;BME280;17871;31.584;74.450;2022-07-10T05:26:21;97461.78;;;35.53;74.30
31239;BME280;17871;31.584;74.450;2022-07-10T05:28:51;97462.28;;;35.73;75.65
31239;BME280;17871;31.584;74.450;2022-07-10T05:31:21;97460.28;;;35.75;74.93
31239;BME280;17871;31.584;74.450;2022-07-10T05:33:51;97457.19;;;36.18;75.32
31239;BME280;17871;31.584;74.450;2022-07-10T05:36:21;97458.31;;;36.32;71.91
31239;BME280;17871;31.584;74.450;2022-07-10T05:38:51;97454.75;;;36.39;71.44
31239;BME280;17871;31.584;74.450;2022-07-10T05:41:21;97451.41;;;36.46;71.01
31239;BME280;17871;31.584;74.450;2022-07-10T05:43:50;97457.75;;;36.75;70.35
31239;BME280;17871;31.584;74.450;2022-07-10T05:46:20;97456.84;;;36.60;70.91
31239;BME280;17871;31.584;74.450;2022-07-10T05:48:50;97457.03;;;36.59;68.80
31239;BME280;17871;31.584;74.450;2022-07-10T05:51:20;97459.84;;;36.88;69.13
31239;BME280;17871;31.584;74.450;2022-07-10T05:53:59;97457.31;;;36.25;71.54
31239;BME280;17871;31.584;74.450;2022-07-10T05:56:30;97461.41;;;36.43;71.13
31239;BME280;17871;31.584;74.450;2022-07-10T05:58:59;97458.59;;;36.99;68.97
31239;BME280;17871;31.584;74.450;2022-07-10T06:01:29;97454.09;;;36.99;69.46
31239;BME280;17871;31.584;74.450;2022-07-10T06:04:00;97446.19;;;36.91;68.82
31239;BME280;17871;31.584;74.450;2022-07-10T06:06:30;97444.44;;;36.75;69.65
31239;BME280;17871;31.584;74.450;2022-07-10T06:09:00;97443.84;;;36.65;71.64
31239;BME280;17871;31.584;74.450;2022-07-10T06:11:30;97441.47;;;36.70;69.46
31239;BME280;17871;31.584;74.450;2022-07-10T06:14:00;97435.91;;;37.11;68.27
31239;BME280;17871;31.584;74.450;2022-07-10T06:16:30;97425.75;;;37.06;68.50
31239;BME280;17871;31.584;74.450;2022-07-10T06:19:00;97421.28;;;37.44;66.94
31239;BME280;17871;31.584;74.450;2022-07-10T06:21:30;97410.19;;;37.84;66.21
31239;BME280;17871;31.584;74.450;2022-07-10T06:23:59;97428.97;;;37.76;66.47
31239;BME280;17871;31.584;74.450;2022-07-10T06:26:29;97425.41;;;37.84;65.48
31239;BME280;17871;31.584;74.450;2022-07-10T06:28:59;97426.88;;;38.16;64.57
31239;BME280;17871;31.584;74.450;2022-07-10T06:31:29;97425.88;;;38.17;63.52
31239;BME280;17871;31.584;74.450;2022-07-10T06:33:59;97424.03;;;38.03;64.86
31239;BME280;17871;31.584;74.450;2022-07-10T06:36:28;97431.34;;;37.71;65.92
31239;BME280;17871;31.584;74.450;2022-07-10T06:39:00;97426.94;;;37.78;65.78
31239;BME280;17871;31.584;74.450;2022-07-10T06:41:30;97428.25;;;37.82;65.23
31239;BME280;17871;31.584;74.450;2022-07-10T06:44:00;97428.72;;;38.01;64.25
31239;BME280;17871;31.584;74.450;2022-07-10T06:46:29;97421.41;;;37.65;66.32
31239;BME280;17871;31.584;74.450;2022-07-10T06:49:01;97419.31;;;37.38;66.02
31239;BME280;17871;31.584;74.450;2022-07-10T06:51:31;97411.09;;;37.25;66.14
31239;BME280;17871;31.584;74.450;2022-07-10T06:54:01;97403.97;;;37.03;67.81
31239;BME280;17871;31.584;74.450;2022-07-10T06:56:31;97403.81;;;37.04;68.53
31239;BME280;17871;31.584;74.450;2022-07-10T06:59:01;97399.94;;;37.07;67.45
31239;BME280;17871;31.584;74.450;2022-07-10T07:01:31;97397.88;;;37.31;66.64
31239;BME280;17871;31.584;74.450;2022-07-10T07:04:01;97398.81;;;37.76;65.47
31239;BME280;17871;31.584;74.450;2022-07-10T07:06:31;97398.53;;;38.15;63.89
31239;BME280;17871;31.584;74.450;2022-07-10T07:09:01;97392.03;;;38.03;63.86
31239;BME280;17871;31.584;74.450;2022-07-10T07:11:31;97377.94;;;37.79;64.34
31239;BME280;17871;31.584;74.450;2022-07-10T07:14:00;97380.03;;;38.13;63.95
31239;BME280;17871;31.584;74.450;2022-07-10T07:16:30;97381.22;;;38.25;64.18
31239;BME280;17871;31.584;74.450;2022-07-10T07:19:15;97382.38;;;38.52;63.30
31239;BME280;17871;31.584;74.450;2022-07-10T07:21:49;97377.53;;;38.62;62.73
31239;BME280;17871;31.584;74.450;2022-07-10T07:24:39;97376.41;;;38.71;62.11
31239;BME280;17871;31.584;74.450;2022-07-10T07:27:08;97369.38;;;38.85;62.42
31239;BME280;17871;31.584;74.450;2022-07-10T07:29:38;97377.00;;;38.88;62.19
31239;BME280;17871;31.584;74.450;2022-07-10T07:32:08;97375.91;;;39.04;61.51
31239;BME280;17871;31.584;74.450;2022-07-10T07:34:38;97382.66;;;39.00;60.96
31239;BME280;17871;31.584;74.450;2022-07-10T07:37:08;97370.66;;;39.17;59.47
31239;BME280;17871;31.584;74.450;2022-07-10T07:39:38;97375.75;;;39.33;59.33
31239;BME280;17871;31.584;74.450;2022-07-10T07:42:08;97373.34;;;39.38;60.31
31239;BME280;17871;31.584;74.450;2022-07-10T07:44:37;97367.38;;;39.15;60.16
31239;BME280;17871;31.584;74.450;2022-07-10T07:47:08;97373.53;;;39.15;60.88
31239;BME280;17871;31.584;74.450;2022-07-10T07:49:38;97380.09;;;39.13;61.37
31239;BME280;17871;31.584;74.450;2022-07-10T07:52:08;97370.59;;;39.10;60.61
31239;BME280;17871;31.584;74.450;2022-07-10T07:54:37;97384.19;;;38.87;61.36
31239;BME280;17871;31.584;74.450;2022-07-10T07:57:07;97390.44;;;38.80;61.95
31239;BME280;17871;31.584;74.450;2022-07-10T07:59:37;97387.72;;;38.73;62.79
31239;BME280;17871;31.584;74.450;2022-07-10T08:02:08;97394.47;;;38.69;61.45
31239;BME280;17871;31.584;74.450;2022-07-10T08:04:38;97395.22;;;38.63;61.69
31239;BME280;17871;31.584;74.450;2022-07-10T08:07:07;97405.22;;;38.76;62.34
31239;BME280;17871;31.584;74.450;2022-07-10T08:09:37;97399.25;;;38.38;63.12
31239;BME280;17871;31.584;74.450;2022-07-10T08:12:07;97398.22;;;38.75;60.93
31239;BME280;17871;31.584;74.450;2022-07-10T08:14:38;97410.81;;;38.96;60.50
31239;BME280;17871;31.584;74.450;2022-07-10T08:17:08;97409.16;;;38.80;59.85
31239;BME280;17871;31.584;74.450;2022-07-10T08:19:37;97409.59;;;38.62;60.47
31239;BME280;17871;31.584;74.450;2022-07-10T08:22:07;97405.63;;;38.08;62.37
31239;BME280;17871;31.584;74.450;2022-07-10T08:24:37;97400.91;;;38.24;63.94
31239;BME280;17871;31.584;74.450;2022-07-10T08:27:08;97399.09;;;38.61;61.08
31239;BME280;17871;31.584;74.450;2022-07-10T08:29:38;97402.69;;;38.03;62.25
31239;BME280;17871;31.584;74.450;2022-07-10T08:32:08;97404.53;;;38.17;62.22
31239;BME280;17871;31.584;74.450;2022-07-10T08:34:38;97408.56;;;38.13;62.06
31239;BME280;17871;31.584;74.450;2022-07-10T08:37:08;97396.53;;;38.02;62.64
31239;BME280;17871;31.584;74.450;2022-07-10T08:39:38;97395.59;;;38.10;63.76
31239;BME280;17871;31.584;74.450;2022-07-10T08:42:10;97395.38;;;38.26;62.75
31239;BME280;17871;31.584;74.450;2022-07-10T08:44:41;97389.44;;;38.09;63.50
31239;BME280;17871;31.584;74.450;2022-07-10T08:47:10;97390.44;;;38.23;61.81
31239;BME280;17871;31.584;74.450;2022-07-10T08:49:46;97378.84;;;38.16;61.74
31239;BME280;17871;31.584;74.450;2022-07-10T08:52:25;97380.13;;;38.05;62.61
31239;BME280;17871;31.584;74.450;2022-07-10T08:54:55;97381.34;;;38.03;62.86
31239;BME280;17871;31.584;74.450;2022-07-10T08:57:26;97381.97;;;38.05;62.85
31239;BME280;17871;31.584;74.450;2022-07-10T08:59:56;97367.81;;;38.04;62.69
31239;BME280;17871;31.584;74.450;2022-07-10T09:02:27;97374.88;;;37.82;63.13
31239;BME280;17871;31.584;74.450;2022-07-10T09:04:57;97371.41;;;37.97;62.31
31239;BME280;17871;31.584;74.450;2022-07-10T09:07:35;97356.25;;;38.33;60.50
31239;BME280;17871;31.584;74.450;2022-07-10T09:10:08;97349.56;;;38.22;61.82
31239;BME280;17871;31.584;74.450;2022-07-10T09:12:53;97352.44;;;37.91;63.84
31239;BME280;17871;31.584;74.450;2022-07-10T09:15:28;97358.50;;;37.85;63.67
31239;BME280;17871;31.584;74.450;2022-07-10T09:18:03;97358.25;;;37.66;64.03
31239;BME280;17871;31.584;74.450;2022-07-10T09:20:37;97352.53;;;37.83;63.19
31239;BME280;17871;31.584;74.450;2022-07-10T09:23:19;97344.16;;;37.72;64.69
31239;BME280;17871;31.584;74.450;2022-07-10T09:25:49;97347.13;;;38.27;63.39
31239;BME280;17871;31.584;74.450;2022-07-10T09:28:21;97342.03;;;37.82;64.32
31239;BME280;17871;31.584;74.450;2022-07-10T09:30:51;97346.38;;;37.68;64.61
31239;BME280;17871;31.584;74.450;2022-07-10T09:33:24;97347.72;;;38.08;64.04
31239;BME280;17871;31.584;74.450;2022-07-10T09:35:58;97355.41;;;37.97;64.68
31239;BME280;17871;31.584;74.450;2022-07-10T09:41:15;97347.00;;;38.50;60.90
31239;BME280;17871;31.584;74.450;2022-07-10T09:43:50;97347.22;;;38.34;62.12
31239;BME280;17871;31.584;74.450;2022-07-10T09:46:22;97337.84;;;38.38;62.26
31239;BME280;17871;31.584;74.450;2022-07-10T09:49:03;97331.25;;;38.55;62.37
31239;BME280;17871;31.584;74.450;2022-07-10T09:54:16;97324.91;;;38.56;61.65
31239;BME280;17871;31.584;74.450;2022-07-10T09:56:49;97320.66;;;38.89;62.00
31239;BME280;17871;31.584;74.450;2022-07-10T09:59:23;97305.28;;;38.91;61.02
31239;BME280;17871;31.584;74.450;2022-07-10T10:01:53;97303.25;;;38.93;59.82
31239;BME280;17871;31.584;74.450;2022-07-10T10:04:24;97309.97;;;38.89;60.35
31239;BME280;17871;31.584;74.450;2022-07-10T10:06:59;97308.75;;;38.85;60.05
31239;BME280;17871;31.584;74.450;2022-07-10T10:09:34;97307.06;;;38.63;61.89
31239;BME280;17871;31.584;74.450;2022-07-10T10:12:39;97307.66;;;38.59;61.70
31239;BME280;17871;31.584;74.450;2022-07-10T10:15:11;97307.81;;;38.78;60.53
31239;BME280;17871;31.584;74.450;2022-07-10T10:17:42;97307.66;;;38.59;61.58
31239;BME280;17871;31.584;74.450;2022-07-10T10:20:14;97307.94;;;38.70;61.60
31239;BME280;17871;31.584;74.450;2022-07-10T10:23:04;97315.34;;;38.68;60.58
31239;BME280;17871;31.584;74.450;2022-07-10T10:25:34;97313.44;;;38.62;61.42
31239;BME280;17871;31.584;74.450;2022-07-10T10:28:11;97312.41;;;39.06;59.87
31239;BME280;17871;31.584;74.450;2022-07-10T10:30:45;97303.47;;;38.35;61.78
31239;BME280;17871;31.584;74.450;2022-07-10T10:36:13;97285.69;;;38.84;59.83
31239;BME280;17871;31.584;74.450;2022-07-10T10:41:23;97275.00;;;38.84;60.06
31239;BME280;17871;31.584;74.450;2022-07-10T10:49:24;97286.44;;;38.78;61.13
31239;BME280;17871;31.584;74.450;2022-07-10T10:52:02;97288.34;;;38.63;61.95
31239;BME280;17871;31.584;74.450;2022-07-10T11:00:06;97289.19;;;38.64;60.22
31239;BME280;17871;31.584;74.450;2022-07-10T11:02:39;97288.63;;;38.68;61.23
31239;BME280;17871;31.584;74.450;2022-07-10T11:07:58;97285.91;;;38.05;62.75
31239;BME280;17871;31.584;74.450;2022-07-10T11:10:31;97287.28;;;38.01;62.42
31239;BME280;17871;31.584;74.450;2022-07-10T11:13:09;97289.78;;;38.38;61.27
31239;BME280;17871;31.584;74.450;2022-07-10T11:15:42;97287.06;;;38.17;61.66
31239;BME280;17871;31.584;74.450;2022-07-10T11:20:46;97290.06;;;38.28;61.12
31239;BME280;17871;31.584;74.450;2022-07-10T11:29:10;97288.56;;;38.40;60.25
31239;BME280;17871;31.584;74.450;2022-07-10T11:31:40;97287.25;;;38.15;61.73
31239;BME280;17871;31.584;74.450;2022-07-10T11:34:14;97281.94;;;38.01;62.41
31239;BME280;17871;31.584;74.450;2022-07-10T11:36:43;97279.75;;;37.89;62.59
31239;BME280;17871;31.584;74.450;2022-07-10T11:39:14;97282.31;;;37.98;63.05
31239;BME280;17871;31.584;74.450;2022-07-10T11:41:44;97275.31;;;38.32;61.69
31239;BME280;17871;31.584;74.450;2022-07-10T11:44:16;97280.28;;;38.35;61.93
31239;BME280;17871;31.584;74.450;2022-07-10T11:46:47;97280.44;;;38.49;61.34
31239;BME280;17871;31.584;74.450;2022-07-10T11:49:18;97284.19;;;38.18;61.68
31239;BME280;17871;31.584;74.450;2022-07-10T11:51:48;97279.56;;;38.06;62.37
31239;BME280;17871;31.584;74.450;2022-07-10T11:54:18;97283.44;;;38.03;63.06
31239;BME280;17871;31.584;74.450;2022-07-10T11:56:52;97280.38;;;38.06;63.35
31239;BME280;17871;31.584;74.450;2022-07-10T11:59:26;97282.53;;;38.17;62.83
31239;BME280;17871;31.584;74.450;2022-07-10T12:01:56;97271.94;;;38.03;63.18
31239;BME280;17871;31.584;74.450;2022-07-10T12:04:29;97284.19;;;37.82;64.64
31239;BME280;17871;31.584;74.450;2022-07-10T12:07:00;97275.81;;;38.00;62.87
31239;BME280;17871;31.584;74.450;2022-07-10T12:09:30;97276.34;;;37.96;63.17
31239;BME280;17871;31.584;74.450;2022-07-10T12:12:05;97271.22;;;37.79;64.67
31239;BME280;17871;31.584;74.450;2022-07-10T12:14:35;97274.78;;;37.86;63.94
31239;BME280;17871;31.584;74.450;2022-07-10T12:17:12;97279.44;;;37.63;65.14
31239;BME280;17871;31.584;74.450;2022-07-10T12:19:42;97269.69;;;37.70;64.91
31239;BME280;17871;31.584;74.450;2022-07-10T12:22:13;97273.72;;;37.66;64.75
31239;BME280;17871;31.584;74.450;2022-07-10T12:24:43;97284.19;;;37.24;66.29
31239;BME280;17871;31.584;74.450;2022-07-10T12:27:39;97267.63;;;37.28;66.23
31239;BME280;17871;31.584;74.450;2022-07-10T12:30:09;97281.41;;;37.32;66.04
31239;BME280;17871;31.584;74.450;2022-07-10T12:32:39;97283.84;;;37.56;64.55
31239;BME280;17871;31.584;74.450;2022-07-10T12:35:09;97277.00;;;37.39;65.52
31239;BME280;17871;31.584;74.450;2022-07-10T12:37:49;97269.75;;;37.18;67.08
31239;BME280;17871;31.584;74.450;2022-07-10T12:40:33;97270.50;;;37.27;66.29
31239;BME280;17871;31.584;74.450;2022-07-10T12:43:04;97282.72;;;37.36;65.92
31239;BME280;17871;31.584;74.450;2022-07-10T12:45:34;97276.19;;;37.24;67.39
31239;BME280;17871;31.584;74.450;2022-07-10T12:48:05;97276.09;;;37.32;66.11
31239;BME280;17871;31.584;74.450;2022-07-10T12:50:38;97274.38;;;37.24;66.17
31239;BME280;17871;31.584;74.450;2022-07-10T12:53:09;97279.81;;;36.93;67.30
31239;BME280;17871;31.584;74.450;2022-07-10T12:55:40;97273.63;;;37.01;66.84
31239;BME280;17871;31.584;74.450;2022-07-10T12:58:10;97273.84;;;36.54;69.05
31239;BME280;17871;31.584;74.450;2022-07-10T13:00:46;97277.50;;;36.90;67.74
31239;BME280;17871;31.584;74.450;2022-07-10T13:03:21;97283.09;;;36.81;68.01
31239;BME280;17871;31.584;74.450;2022-07-10T13:05:54;97281.31;;;36.73;68.33
31239;BME280;17871;31.584;74.450;2022-07-10T13:08:25;97291.34;;;36.71;68.36
31239;BME280;17871;31.584;74.450;2022-07-10T13:10:56;97287.88;;;36.40;69.43
31239;BME280;17871;31.584;74.450;2022-07-10T13:13:30;97295.88;;;36.40;69.78
31239;BME280;17871;31.584;74.450;2022-07-10T13:15:59;97301.19;;;36.40;69.80
31239;BME280;17871;31.584;74.450;2022-07-10T13:18:29;97299.47;;;36.55;69.38
31239;BME280;17871;31.584;74.450;2022-07-10T13:20:59;97301.63;;;36.52;69.58
31239;BME280;17871;31.584;74.450;2022-07-10T13:23:30;97307.19;;;36.42;69.93
31239;BME280;17871;31.584;74.450;2022-07-10T13:26:00;97311.44;;;36.28;70.11
31239;BME280;17871;31.584;74.450;2022-07-10T13:28:32;97316.31;;;36.17;70.76
31239;BME280;17871;31.584;74.450;2022-07-10T13:31:02;97325.97;;;36.18;71.36
31239;BME280;17871;31.584;74.450;2022-07-10T13:33:32;97324.78;;;36.20;71.63
31239;BME280;17871;31.584;74.450;2022-07-10T13:36:03;97324.22;;;35.94;72.22
31239;BME280;17871;31.584;74.450;2022-07-10T13:38:34;97329.06;;;35.90;72.26
31239;BME280;17871;31.584;74.450;2022-07-10T13:41:04;97329.53;;;35.94;72.25
31239;BME280;17871;31.584;74.450;2022-07-10T13:43:34;97330.09;;;35.89;72.78